Artesia, New Mexico
Current Conditions -  °F | °C
As of 10:51 AM on Thursday 27 Nov 2014 (Local Time) from KROW Reporting Station
Clear Clear  
Wind Chill: 11°   Ceiling: Unl
Heat Index: 11°   Visibility: 10mi
Dew Point: -1°   Wind: 13mph
Humidity: 45%   Direction: 160°SSE
Pressure: 30.43"   Gusts: NA
Location:  32.84°N, 104.39°W
Report Text: KROW 271751Z 16011KT 10SM CLR 11/M01 A3043 RMK AO2 SLP287 T01111006 10111 21039 58008
Loading
Personal Weather Stations






























Interactive Weather Map New forecast layout! Learn more

10-Day Weather Forecast

Advertisements
Track Severe Weather on mobile